Main page
Satellite images 15-day forecastsClimateMarine weather Cyclones Lightning AirportsFAQ Newsletter About
Weather : Europe Africa North America South America Asia Australia-Oceania Others
Languages Contact

Gdańsk, Poland

Lech Wałęsa

latitude: 54-23N, longitude: 018-28E, elevation: 135 m


METAR: EPGD 020130Z 07004KT CAVOK 11/09 Q1021
short-TAF: out of date (45476 hours)
long-TAF: EPGD 011730Z 0118/0218 06012KT CAVOK BECMG 0118/0120 09002KT BECMG 0205/0208 06012KT

Time: 03:49 (01:49 UTC)

Current weather observation

The report was made 19 minutes ago, at 01:30 UTC  
Wind 04 kt from the East/Northeast
Temperature 11°C
Humidity 87%
Pressure 1021 hPa
Visibility 10 km or more
no clouds below 1500 m and no cumulonimbus

Change units

Forecast

The report was made 8 hours and 12 minutes ago, at 17:37 UTC  
Forecast valid from 01 at 18 UTC to 02 at 18 UTC
Wind 12 kt from the East/Northeast
Visibility 10 km or more
no clouds below 1500 m and no cumulonimbus
Becoming
from 01 at 18 UTC to 01 at 20 UTC
Wind 02 kt from the East
Becoming
from 02 at 05 UTC to 02 at 08 UTC
Wind 12 kt from the East/Northeast
The information on this site is subject to a disclaimer
Weather : Europe Africa North America South America Asia Australia-Oceania Others
Satellite images 15-day forecastsClimateMarine weather Cyclones Lightning AirportsFAQ Languages Contact Newsletter About